CheckWX is a tool to help pilots better visualize weather data.  It is not intended as a substitute for an official pre-flight weather briefing.

09:28:27 UTC

KJST METAR
John Murtha Johnstown-Cambria Co Airport
Johnstown, Pennsylvania, USA
Current

34 mins ago

KJST 200854Z AUTO 13009KT 10SM OVC100 M04/M13 A3032 RMK AO2 SLP299 T10391128 58022
Observed
Feb-20 @ 08:54 UTC
Wind
  • 130° at 9 KTS
Visibility
16,093 meters
Flight Rules
VFR
Cloud Levels
  • Overcast at 10,000' AGL
Temperature
-4°C / 25°F
Dewpoint
-13°C / 9°F
Humidity
50%
Altimeter
30.32" Hg
Pressure
1029.9 hPa
Previous

2 hours ago

KJST 200754Z AUTO 11006KT 10SM SCT120 M04/M13 A3035 RMK AO2 SLP311 T10441128
Observed
Feb-20 @ 07:54 UTC
Wind
  • 110° at 6 KTS
Visibility
16,093 meters
Flight Rules
VFR
Cloud Levels
  • Scattered at 12,000' AGL
Temperature
-4°C / 25°F
Dewpoint
-13°C / 9°F
Humidity
50%
Altimeter
30.35" Hg
Pressure
1031.1 hPa
Previous

3 hours ago

KJST 200654Z AUTO 14007KT 10SM CLR M04/M13 A3039 RMK AO2 SLP324 T10441128
Observed
Feb-20 @ 06:54 UTC
Wind
  • 140° at 7 KTS
Visibility
16,093 meters
Flight Rules
VFR
Cloud Levels
  • Clear skies
Temperature
-4°C / 25°F
Dewpoint
-13°C / 9°F
Humidity
50%
Altimeter
30.39" Hg
Pressure
1032.4 hPa